Time;durP1;ratioP1;P1;durP2;ratioP2;P2;SDS_P1;SDS_P2;PMS_P1;PMS_P2;Temp;Humidity;BMP_temperature;BMP_pressure;BME280_temperature;BME280_humidity;BME280_pressure;Samples;Min_cycle;Max_cycle;Signal;HPM_P1;HPM_P2
2022/02/15 00:01:13;;;;;;;12.88;7.70;;;;;;;0.13;59.15;101159.70;1669466;84;21513;-61
2022/02/15 00:03:39;;;;;;;10.05;7.28;;;;;;;0.14;59.03;101160.52;1639301;86;21030;-62
2022/02/15 00:06:06;;;;;;;11.65;7.72;;;;;;;0.10;59.01;101162.98;1677549;84;21121;-63
2022/02/15 00:08:32;;;;;;;11.75;7.85;;;;;;;0.09;59.01;101159.50;1684041;84;21014;-61
2022/02/15 00:10:58;;;;;;;10.98;7.97;;;;;;;0.10;59.03;101159.88;1662636;84;21564;-61
2022/02/15 00:13:24;;;;;;;10.85;7.08;;;;;;;0.05;59.15;101154.09;1679525;84;21281;-63
2022/02/15 00:15:50;;;;;;;10.85;6.00;;;;;;;0.02;59.33;101150.38;1638345;86;21619;-62
2022/02/15 00:18:16;;;;;;;11.00;6.95;;;;;;;-0.33;59.42;101091.92;1626671;87;21075;-60
2022/02/15 00:20:44;;;;;;;10.67;7.07;;;;;;;-0.03;59.66;101146.73;1622845;87;21541;-61
2022/02/15 00:23:10;;;;;;;11.15;7.90;;;;;;;-0.05;59.80;101150.41;1648295;85;21057;-62
2022/02/15 00:25:38;;;;;;;13.55;7.60;;;;;;;-0.08;60.05;101146.66;1700924;84;21078;-60
2022/02/15 00:28:05;;;;;;;9.83;6.70;;;;;;;-0.64;60.12;101048.52;1666875;84;21073;-60
2022/02/15 00:30:32;;;;;;;11.90;7.47;;;;;;;-0.08;60.26;101140.94;1655872;85;21046;-61
2022/02/15 00:32:58;;;;;;;13.48;7.75;;;;;;;-0.08;60.36;101142.25;1676461;84;21507;-62
2022/02/15 00:35:25;;;;;;;12.05;7.62;;;;;;;-0.10;60.59;101139.38;1687496;84;21145;-61
2022/02/15 00:37:51;;;;;;;9.50;6.95;;;;;;;-0.09;60.68;101141.06;1679678;84;21005;-62
2022/02/15 00:40:17;;;;;;;12.18;7.75;;;;;;;-0.11;60.91;101137.23;1680233;84;21050;-61
2022/02/15 00:42:43;;;;;;;11.48;7.53;;;;;;;-0.14;61.13;101140.52;1675685;84;21059;-61
2022/02/15 00:45:10;;;;;;;11.20;7.78;;;;;;;-0.18;61.43;101123.31;1672251;84;21081;-62
2022/02/15 00:47:37;;;;;;;13.77;7.80;;;;;;;-0.18;61.43;101123.31;1661055;85;21073;-63
2022/02/15 00:50:05;;;;;;;12.68;8.63;;;;;;;-0.20;61.54;101131.27;1663095;84;21007;-61
2022/02/15 00:52:32;;;;;;;11.60;7.87;;;;;;;-0.20;61.63;101132.58;1668740;84;21100;-61
2022/02/15 00:54:58;;;;;;;12.93;7.92;;;;;;;-0.26;61.89;101131.67;1660216;84;21063;-61
2022/02/15 00:57:26;;;;;;;12.03;8.03;;;;;;;-0.22;61.79;101127.44;1657032;84;21046;-62
2022/02/15 00:59:53;;;;;;;11.17;7.67;;;;;;;-0.24;61.95;101130.62;1671645;84;21569;-61
2022/02/15 01:02:19;;;;;;;15.13;8.48;;;;;;;-0.23;62.00;101124.91;1667609;85;22180;-62
2022/02/15 01:04:47;;;;;;;10.43;7.53;;;;;;;-0.25;62.08;101121.06;1692675;84;21018;-60
2022/02/15 01:07:13;;;;;;;12.03;7.97;;;;;;;-0.26;62.21;101125.13;1713034;82;21016;-61
2022/02/15 01:09:42;;;;;;;10.23;6.90;;;;;;;-0.29;62.38;101126.14;1677170;84;21031;-61
2022/02/15 01:12:10;;;;;;;10.05;7.05;;;;;;;-0.29;62.58;101129.23;1701863;82;21007;-64
2022/02/15 01:14:39;;;;;;;11.90;7.47;;;;;;;-0.25;62.49;101123.69;1706884;82;21014;-60
2022/02/15 01:17:05;;;;;;;12.70;7.13;;;;;;;-0.29;62.64;101118.28;1713445;82;21035;-62
2022/02/15 01:19:34;;;;;;;15.20;7.87;;;;;;;-0.30;62.85;101112.69;1700345;82;21083;-62
2022/02/15 01:22:01;;;;;;;11.63;6.77;;;;;;;-0.28;62.91;101115.22;1707684;82;21514;-60
2022/02/15 01:24:27;;;;;;;13.03;8.23;;;;;;;-0.29;63.02;101120.07;1711020;82;21253;-62
2022/02/15 01:26:53;;;;;;;11.12;7.80;;;;;;;-0.31;63.24;101112.30;1712793;82;21515;-61
2022/02/15 01:29:19;;;;;;;12.10;8.28;;;;;;;-0.34;63.36;101112.52;1692761;82;21063;-62
2022/02/15 01:31:45;;;;;;;8.75;6.80;;;;;;;-0.35;63.59;101108.20;1694978;83;21027;-60
2022/02/15 01:34:12;;;;;;;10.80;7.97;;;;;;;-0.36;63.69;101109.61;1725580;82;20951;-62
2022/02/15 01:36:39;;;;;;;9.58;6.75;;;;;;;-0.35;63.75;101108.69;1706260;82;21082;-60
2022/02/15 01:39:05;;;;;;;13.90;8.47;;;;;;;-0.36;63.92;101114.84;1716993;82;21090;-60
2022/02/15 01:41:31;;;;;;;12.10;8.33;;;;;;;-0.37;63.93;101115.80;1712978;82;21198;-63
2022/02/15 01:43:58;;;;;;;10.20;6.55;;;;;;;-0.39;64.09;101109.34;1707623;82;21057;-62
2022/02/15 01:46:24;;;;;;;9.70;6.08;;;;;;;-0.37;63.99;101107.47;1720906;82;21668;-58
2022/02/15 01:48:51;;;;;;;8.20;6.05;;;;;;;-0.37;64.15;101109.26;1714790;82;21053;-59
2022/02/15 01:51:19;;;;;;;13.33;8.60;;;;;;;-0.38;64.26;101108.39;1723507;82;21030;-61
2022/02/15 01:53:45;;;;;;;10.20;7.03;;;;;;;-0.41;64.41;101108.13;1729355;82;20955;-59
2022/02/15 01:56:14;;;;;;;13.75;7.47;;;;;;;-0.40;64.52;101107.66;1710085;82;21473;-60
2022/02/15 01:58:42;;;;;;;13.90;6.40;;;;;;;-0.40;64.45;101105.03;1726934;82;21010;-61
2022/02/15 02:01:16;;;;;;;13.10;8.63;;;;;;;-0.38;64.45;101105.77;1714480;82;21085;-61
2022/02/15 02:03:44;;;;;;;13.67;7.87;;;;;;;-0.40;64.55;101110.27;1717813;82;21070;-61
2022/02/15 02:06:10;;;;;;;11.35;8.10;;;;;;;-0.46;64.92;101106.75;1707036;82;21050;-61
2022/02/15 02:08:36;;;;;;;15.93;9.25;;;;;;;-0.48;65.01;101109.45;1717489;82;21034;-60
2022/02/15 02:11:05;;;;;;;14.07;9.60;;;;;;;-0.49;64.97;101108.23;1724108;82;22189;-62
2022/02/15 02:13:51;;;;;;;16.75;9.08;;;;;;;-0.48;64.92;101109.94;1705310;82;21036;-62
2022/02/15 02:16:31;;;;;;;13.18;7.92;;;;;;;-0.50;65.36;101117.05;1673914;82;21053;-61
2022/02/15 02:19:05;;;;;;;13.32;7.58;;;;;;;-0.53;65.61;101115.92;1697910;82;21570;-61
2022/02/15 02:21:41;;;;;;;12.40;8.63;;;;;;;-0.59;65.88;101115.37;1708033;82;21078;-63
2022/02/15 02:24:09;;;;;;;12.30;7.60;;;;;;;-0.60;65.80;101112.39;1716228;82;21052;-60
2022/02/15 02:26:37;;;;;;;12.53;8.43;;;;;;;-0.62;66.07;101115.58;1725652;82;21074;-61
2022/02/15 02:29:04;;;;;;;9.90;6.12;;;;;;;-0.67;66.48;101116.33;1718332;82;21070;-60
2022/02/15 02:31:32;;;;;;;11.03;7.93;;;;;;;-0.66;66.55;101114.10;1692430;84;21042;-60
2022/02/15 02:34:06;;;;;;;8.43;6.57;;;;;;;-0.69;66.80;101107.73;1707569;82;21050;-60
2022/02/15 02:36:47;;;;;;;9.60;6.28;;;;;;;-0.67;66.67;101116.33;1722759;82;20979;-63
2022/02/15 02:39:17;;;;;;;9.37;6.70;;;;;;;-0.72;67.14;101115.77;1703227;82;21004;-60
2022/02/15 02:41:43;;;;;;;9.97;6.93;;;;;;;-0.70;67.17;101115.20;1705053;82;20991;-60
2022/02/15 02:44:09;;;;;;;10.30;7.08;;;;;;;-0.71;67.39;101116.16;1717879;82;21007;-60
2022/02/15 02:46:36;;;;;;;9.83;6.62;;;;;;;-0.72;67.44;101107.92;1720777;82;21598;-60
2022/02/15 02:49:02;;;;;;;7.97;5.92;;;;;;;-0.70;67.36;101109.97;1714046;82;21057;-64
2022/02/15 02:51:30;;;;;;;8.70;6.77;;;;;;;-0.72;67.51;101110.53;1713127;82;21027;-62
2022/02/15 02:53:58;;;;;;;15.17;7.50;;;;;;;-0.73;67.51;101114.59;1698145;82;21092;-61
2022/02/15 02:56:25;;;;;;;9.20;7.33;;;;;;;-0.70;67.47;101115.20;1709455;82;21078;-60
2022/02/15 02:58:51;;;;;;;;;;;;;;;-0.69;67.37;101118.69;1722871;82;20979;-60
2022/02/15 03:01:18;;;;;;;11.07;7.07;;;;;;;-0.67;67.30;101115.50;1734787;82;20107;-61
2022/02/15 03:03:44;;;;;;;13.00;7.87;;;;;;;-0.71;67.35;101118.78;1715135;82;21590;-61
2022/02/15 03:06:11;;;;;;;10.65;6.83;;;;;;;-0.70;67.46;101127.46;1710508;82;21519;-61
2022/02/15 03:08:36;;;;;;;10.50;8.03;;;;;;;-0.68;67.35;101129.07;1705112;82;21560;-61
2022/02/15 03:11:03;;;;;;;11.12;7.17;;;;;;;-0.66;67.42;101123.27;1695778;82;21053;-61
2022/02/15 03:13:35;;;;;;;9.97;6.83;;;;;;;-0.66;67.36;101118.03;1709931;82;21025;-61
2022/02/15 03:16:04;;;;;;;11.37;7.47;;;;;;;-0.69;67.61;101119.52;1716477;82;21026;-60
2022/02/15 03:18:31;;;;;;;9.27;6.80;;;;;;;-0.67;67.42;101118.12;1711238;82;21568;-60
2022/02/15 03:20:58;;;;;;;9.37;7.07;;;;;;;-0.69;67.54;101122.61;1712077;82;20998;-62
2022/02/15 03:23:25;;;;;;;10.58;6.92;;;;;;;-0.69;67.52;101120.83;1711911;82;21078;-61
2022/02/15 03:25:51;;;;;;;9.70;7.08;;;;;;;-0.74;67.71;101116.34;1717470;82;21553;-60
2022/02/15 03:28:19;;;;;;;10.03;6.53;;;;;;;-0.75;67.64;101117.30;1707072;82;21086;-60
2022/02/15 03:30:46;;;;;;;12.43;6.87;;;;;;;-0.81;67.95;101117.21;1708386;82;21018;-59
2022/02/15 03:33:13;;;;;;;10.10;6.47;;;;;;;-0.83;68.16;101118.22;1717762;82;21157;-61
2022/02/15 03:35:40;;;;;;;12.53;7.23;;;;;;;-0.85;68.20;101120.96;1712766;82;21059;-61
2022/02/15 03:38:11;;;;;;;10.73;7.47;;;;;;;-0.86;68.23;101115.81;1708290;82;21134;-62
2022/02/15 03:43:24;;;;;;;9.13;7.17;;;;;;;-0.85;68.10;101114.86;1698227;82;21111;-63
2022/02/15 03:45:51;;;;;;;9.63;6.47;;;;;;;-0.89;68.33;101116.83;1708395;82;21050;-63
2022/02/15 03:48:25;;;;;;;15.67;7.50;;;;;;;-0.88;68.25;101121.61;1705394;82;21058;-64
2022/02/15 03:50:52;;;;;;;11.13;7.47;;;;;;;-0.90;68.34;101109.92;1702794;82;21001;-61
2022/02/15 03:53:19;;;;;;;9.48;6.08;;;;;;;-0.88;68.18;101116.38;1707339;82;21008;-63
2022/02/15 03:55:48;;;;;;;13.47;7.30;;;;;;;-0.95;68.53;101115.91;1684414;84;21752;-62
2022/02/15 03:58:14;;;;;;;10.63;7.93;;;;;;;-0.93;68.38;101120.58;1698807;82;21041;-63
2022/02/15 04:00:41;;;;;;;10.90;7.57;;;;;;;-0.95;68.47;101117.69;1698795;82;21050;-63
2022/02/15 04:03:13;;;;;;;9.17;7.10;;;;;;;-0.94;68.43;101127.20;1709000;82;21050;-60
2022/02/15 04:05:40;;;;;;;8.40;6.78;;;;;;;-0.93;68.30;101123.19;1703685;82;21031;-62
2022/02/15 04:08:08;;;;;;;12.13;6.37;;;;;;;-0.94;68.42;101123.28;1704363;82;21484;-60
2022/02/15 04:10:34;;;;;;;10.95;7.58;;;;;;;-0.95;68.48;101126.84;1710269;82;21006;-62
2022/02/15 04:13:01;;;;;;;11.60;7.60;;;;;;;-0.93;68.47;101123.67;1703915;82;21621;-61
2022/02/15 04:15:28;;;;;;;;;;;;;;;-0.93;68.45;101128.42;1712826;82;21042;-61
2022/02/15 04:17:57;;;;;;;11.13;7.10;;;;;;;-0.93;68.34;101125.81;1706295;82;21022;-63
2022/02/15 04:20:25;;;;;;;9.80;7.17;;;;;;;-0.97;68.48;101128.25;1710472;82;21061;-61
2022/02/15 04:22:51;;;;;;;10.93;7.20;;;;;;;-1.00;68.60;101129.29;1705491;82;21084;-61
2022/02/15 04:26:09;;;;;;;13.77;6.60;;;;;;;-0.92;68.48;101124.89;1799005;79;23555;-60
2022/02/15 04:28:37;;;;;;;9.10;6.37;;;;;;;-0.97;68.51;101132.17;1769691;80;21010;-62
2022/02/15 04:31:05;;;;;;;10.70;6.77;;;;;;;-0.96;68.45;101131.70;1758529;80;21839;-61
2022/02/15 04:33:32;;;;;;;11.80;7.27;;;;;;;-0.99;68.50;101130.95;1763421;79;21036;-61
2022/02/15 04:35:59;;;;;;;13.72;6.92;;;;;;;-0.97;68.51;101141.80;1728790;81;21024;-62
2022/02/15 04:38:27;;;;;;;10.20;7.40;;;;;;;-0.97;68.46;101140.50;1732694;81;21033;-61
2022/02/15 04:40:54;;;;;;;8.67;6.70;;;;;;;-1.00;68.49;101131.91;1715298;81;21407;-61
2022/02/15 04:43:22;;;;;;;9.83;7.50;;;;;;;-0.95;68.32;101135.53;1728826;81;21013;-60
2022/02/15 04:45:50;;;;;;;9.03;7.50;;;;;;;-0.95;68.34;101130.30;1676707;81;21020;-62
2022/02/15 04:48:17;;;;;;;11.40;7.17;;;;;;;-0.95;68.32;101132.08;1671717;84;21425;-61
2022/02/15 04:50:43;;;;;;;13.68;8.10;;;;;;;-0.92;68.28;101135.36;1652724;84;21046;-61
2022/02/15 04:53:10;;;;;;;8.43;7.15;;;;;;;-0.90;68.20;101132.66;1671508;84;21549;-62
2022/02/15 04:55:36;;;;;;;11.95;8.25;;;;;;;-0.90;68.19;101137.88;1667638;84;21041;-62
2022/02/15 04:58:04;;;;;;;10.27;7.07;;;;;;;-0.89;68.15;101139.08;1696377;83;21053;-62
2022/02/15 05:00:32;;;;;;;9.77;6.80;;;;;;;-0.88;68.12;101143.86;1667905;84;21010;-61
2022/02/15 05:03:00;;;;;;;10.27;6.97;;;;;;;-0.90;68.20;101138.72;1668290;84;21113;-61
2022/02/15 05:05:27;;;;;;;;;;;;;;;-0.93;68.23;101147.22;1676671;84;21634;-62
2022/02/15 05:07:54;;;;;;;15.27;9.17;;;;;;;-0.90;68.13;101150.97;1662793;84;20905;-61
2022/02/15 05:10:21;;;;;;;9.57;7.43;;;;;;;-0.97;68.35;101144.42;1671802;84;22190;-61
2022/02/15 05:12:49;;;;;;;11.00;7.10;;;;;;;-0.92;68.32;101148.89;1635547;84;21097;-62
2022/02/15 05:15:17;;;;;;;11.87;7.80;;;;;;;-0.87;68.22;101149.45;1640028;86;21056;-62
2022/02/15 05:17:51;;;;;;;13.77;8.63;;;;;;;-0.85;68.16;101151.51;1623895;87;21069;-63
2022/02/15 05:20:18;;;;;;;;;;;;;;;-0.79;67.92;101154.60;1606281;86;21139;-62
2022/02/15 05:22:45;;;;;;;11.83;8.50;;;;;;;-0.76;67.80;101155.34;1649204;84;20196;-61
2022/02/15 05:25:14;;;;;;;10.03;8.27;;;;;;;-0.75;67.82;101153.95;1681420;84;21090;-62
2022/02/15 05:27:42;;;;;;;14.23;9.57;;;;;;;-0.66;67.79;101152.06;1647178;85;21045;-61
2022/02/15 05:30:16;;;;;;;13.20;8.70;;;;;;;-0.41;67.42;101155.76;1676383;84;21099;-62
2022/02/15 05:32:53;;;;;;;11.48;8.45;;;;;;;-0.09;66.68;101161.55;1671036;84;21552;-64
2022/02/15 05:35:20;;;;;;;12.20;9.17;;;;;;;0.41;65.77;101156.53;1668505;84;21064;-64
2022/02/15 05:37:46;;;;;;;;;;;;;;;0.89;64.71;101159.41;1680807;84;21101;-64
2022/02/15 05:40:15;;;;;;;16.50;10.03;;;;;;;1.51;63.52;101163.01;1676404;84;20462;-66
2022/02/15 05:42:44;;;;;;;15.13;9.87;;;;;;;2.05;60.47;101159.11;1656063;84;20987;-63
2022/02/15 05:45:12;;;;;;;13.43;8.63;;;;;;;2.48;58.85;101163.32;1659407;84;21032;-60
2022/02/15 05:47:40;;;;;;;14.23;8.27;;;;;;;2.90;57.82;101158.84;1683077;84;20970;-60
2022/02/15 05:52:52;;;;;;;14.73;9.07;;;;;;;3.45;54.96;101160.30;1623349;87;21091;-60
2022/02/15 05:55:18;;;;;;;14.85;9.28;;;;;;;3.88;53.87;101162.10;1668271;84;21596;-62
2022/02/15 05:57:45;;;;;;;15.00;9.23;;;;;;;4.08;51.96;101158.67;1676101;85;21036;-61
2022/02/15 06:00:15;;;;;;;12.70;8.80;;;;;;;4.07;52.05;101154.87;1664429;84;21082;-62
2022/02/15 06:02:43;;;;;;;14.03;9.47;;;;;;;4.27;51.92;101151.89;1616953;86;21021;-58
2022/02/15 06:05:12;;;;;;;12.90;9.13;;;;;;;4.60;51.10;101148.72;1605878;87;21155;-60
2022/02/15 06:07:41;;;;;;;11.20;8.57;;;;;;;4.85;49.31;101152.26;1632738;86;21608;-64
2022/02/15 06:10:10;;;;;;;13.03;9.20;;;;;;;5.00;49.32;101149.28;1618371;87;21036;-64
2022/02/15 06:12:38;;;;;;;16.33;8.33;;;;;;;5.18;48.83;101156.09;1628513;87;21079;-66
2022/02/15 06:15:08;;;;;;;10.37;7.67;;;;;;;5.33;47.68;101148.63;1635878;86;21091;-62
2022/02/15 06:17:39;;;;;;;15.27;8.47;;;;;;;5.25;47.63;101147.52;1609464;86;21067;-63
2022/02/15 06:20:07;;;;;;;10.23;7.97;;;;;;;5.05;47.83;101152.37;1658064;85;21071;-61
2022/02/15 06:22:35;;;;;;;14.83;8.93;;;;;;;4.41;48.90;101157.36;1639260;85;21546;-61
2022/02/15 06:25:03;;;;;;;11.03;7.80;;;;;;;3.57;50.76;101159.31;1649318;85;21616;-65
2022/02/15 06:27:37;;;;;;;15.40;8.90;;;;;;;2.86;52.73;101154.78;1647574;85;21116;-61
2022/02/15 06:30:10;;;;;;;14.60;8.57;;;;;;;2.25;54.77;101158.47;1656374;85;21554;-62
2022/02/15 06:32:38;;;;;;;11.03;7.77;;;;;;;1.85;56.01;101157.47;1663308;85;21094;-62
2022/02/15 06:35:08;;;;;;;10.48;7.55;;;;;;;1.50;57.32;101163.46;1668028;84;21587;-61
2022/02/15 06:37:37;;;;;;;9.97;7.50;;;;;;;1.33;58.12;101158.57;1673881;84;21000;-59
2022/02/15 06:40:06;;;;;;;9.87;6.27;;;;;;;1.23;58.33;101154.45;1669103;84;21035;-61
2022/02/15 06:42:35;;;;;;;9.47;6.60;;;;;;;1.21;58.49;101158.14;1653272;85;21092;-59
2022/02/15 06:45:03;;;;;;;13.40;8.50;;;;;;;1.18;58.72;101149.15;1674064;83;21554;-61
2022/02/15 06:47:29;;;;;;;13.60;7.97;;;;;;;1.09;58.83;101158.50;1675272;84;21559;-62
2022/02/15 06:50:02;;;;;;;10.07;7.07;;;;;;;1.00;59.20;101158.69;1674204;84;21068;-63
2022/02/15 06:52:47;;;;;;;11.17;7.43;;;;;;;0.94;59.36;101149.89;1691194;84;21079;-64
2022/02/15 06:55:15;;;;;;;14.37;7.33;;;;;;;0.94;59.62;101161.70;1686661;84;21083;-64
2022/02/15 06:57:45;;;;;;;13.43;7.30;;;;;;;0.89;59.85;101150.22;1677608;84;21066;-61
2022/02/15 07:00:15;;;;;;;12.23;7.63;;;;;;;0.91;59.78;101161.45;1678648;83;21054;-64
2022/02/15 07:02:41;;;;;;;11.00;7.07;;;;;;;0.97;59.64;101154.95;1689932;83;21065;-66
2022/02/15 07:05:10;;;;;;;11.40;6.83;;;;;;;1.02;59.55;101148.91;1685085;83;21040;-63
2022/02/15 07:07:38;;;;;;;10.33;7.33;;;;;;;1.03;59.56;101137.45;1706705;83;21077;-61
2022/02/15 07:10:09;;;;;;;9.17;7.73;;;;;;;1.14;59.26;101145.41;1681539;83;21021;-62
2022/02/15 07:12:49;;;;;;;13.23;7.93;;;;;;;1.16;58.90;101142.20;1676879;83;21573;-61
2022/02/15 07:15:17;;;;;;;10.20;8.00;;;;;;;1.16;58.92;101146.14;1685984;83;21102;-63
2022/02/15 07:17:45;;;;;;;11.87;6.80;;;;;;;1.15;59.09;101146.27;1687809;83;21066;-65
2022/02/15 07:20:13;;;;;;;18.03;7.60;;;;;;;1.21;59.09;101140.59;1687031;83;21093;-63
2022/02/15 07:22:51;;;;;;;10.03;7.33;;;;;;;1.25;58.83;101145.98;1698352;83;21055;-64
2022/02/15 07:25:37;;;;;;;14.23;7.07;;;;;;;1.28;58.55;101144.47;1693074;83;21076;-64
2022/02/15 07:28:05;;;;;;;13.63;7.47;;;;;;;1.26;58.44;101145.05;1691669;83;21485;-62
2022/02/15 07:30:35;;;;;;;12.10;7.17;;;;;;;1.31;58.46;101141.60;1707354;83;20989;-62
2022/02/15 07:33:04;;;;;;;12.23;7.80;;;;;;;1.30;58.38;101139.94;1694750;81;21627;-63
2022/02/15 07:35:32;;;;;;;12.50;7.30;;;;;;;1.38;58.41;101143.33;1656484;85;21032;-65
2022/02/15 07:37:58;;;;;;;14.13;7.47;;;;;;;1.38;58.04;101145.13;1654727;85;21074;-63
2022/02/15 07:40:24;;;;;;;9.55;7.55;;;;;;;1.43;58.28;101142.54;1655329;85;21079;-62
2022/02/15 07:42:52;;;;;;;11.43;8.17;;;;;;;1.50;58.02;101145.55;1656142;85;21034;-62
2022/02/15 07:45:20;;;;;;;16.17;10.40;;;;;;;1.54;58.07;101140.44;1674410;84;21062;-65
2022/02/15 07:47:48;;;;;;;;;;;;;;;1.58;57.67;101138.43;1600498;88;21467;-63
2022/02/15 07:50:16;;;;;;;;;;;;;;;1.58;57.07;101137.11;1624683;87;20197;-63
2022/02/15 07:52:44;;;;;;;10.23;7.80;;;;;;;1.57;57.44;101118.37;1647176;85;20137;-65
2022/02/15 07:55:12;;;;;;;11.30;7.80;;;;;;;1.58;57.55;101129.23;1644853;85;20999;-65
2022/02/15 07:57:41;;;;;;;15.10;8.93;;;;;;;1.68;57.55;101115.33;1619437;87;21045;-64
2022/02/15 08:00:10;;;;;;;9.90;7.47;;;;;;;1.81;57.19;101119.67;1605290;88;21770;-66
2022/02/15 08:02:40;;;;;;;12.23;8.03;;;;;;;1.93;56.41;101121.41;1611653;87;21141;-67
2022/02/15 08:05:07;;;;;;;13.15;7.45;;;;;;;2.03;56.34;101114.99;1611146;87;21082;-62
2022/02/15 08:07:33;;;;;;;8.63;6.57;;;;;;;2.06;55.75;101099.00;1609754;87;21070;-61
2022/02/15 08:10:02;;;;;;;;;;;;;;;2.14;55.61;101109.77;1613831;87;21058;-62
2022/02/15 08:12:28;;;;;;;;;;;;;;;2.22;55.62;101107.39;1648676;84;20457;-66
2022/02/15 08:14:54;;;;;;;17.20;5.87;;;;;;;2.19;55.65;101108.95;1668795;84;21184;-64
2022/02/15 08:17:20;;;;;;;18.95;7.25;;;;;;;2.12;55.41;101086.20;1670329;84;21075;-67
2022/02/15 08:19:46;;;;;;;19.77;7.22;;;;;;;2.09;55.73;101115.84;1668677;84;21023;-62
2022/02/15 08:22:12;;;;;;;9.88;6.35;;;;;;;2.03;56.24;101102.67;1665173;84;21063;-63
2022/02/15 08:24:39;;;;;;;9.17;5.70;;;;;;;2.09;56.23;101106.19;1664552;84;21344;-63
2022/02/15 08:27:06;;;;;;;9.73;6.67;;;;;;;2.13;56.36;101107.63;1674482;84;21082;-63
2022/02/15 08:29:33;;;;;;;11.40;7.57;;;;;;;2.14;56.38;101098.77;1667729;84;21487;-65
2022/02/15 08:32:00;;;;;;;12.33;6.37;;;;;;;2.17;56.50;101111.32;1670831;84;21514;-62
2022/02/15 08:34:27;;;;;;;11.97;7.27;;;;;;;2.12;56.86;101110.36;1665898;84;21010;-65
2022/02/15 08:36:53;;;;;;;15.10;6.80;;;;;;;2.13;57.12;101109.42;1669218;84;20991;-62
2022/02/15 08:39:19;;;;;;;10.50;7.37;;;;;;;2.22;56.95;101089.47;1670552;84;21513;-64
2022/02/15 08:41:46;;;;;;;15.50;7.90;;;;;;;2.33;56.96;101096.07;1665583;84;21721;-63
2022/02/15 08:44:12;;;;;;;13.78;6.95;;;;;;;2.37;56.70;101095.36;1669326;84;21123;-62
2022/02/15 08:46:39;;;;;;;11.27;6.63;;;;;;;2.48;56.53;101098.02;1666066;84;21140;-67
2022/02/15 08:49:05;;;;;;;12.60;6.53;;;;;;;2.53;56.60;101099.34;1666886;84;21007;-62
2022/02/15 08:51:34;;;;;;;11.18;6.85;;;;;;;2.63;56.47;101096.00;1665296;84;21173;-63
2022/02/15 08:53:59;;;;;;;10.00;6.57;;;;;;;2.70;56.40;101091.95;1666446;84;20980;-62
2022/02/15 08:56:26;;;;;;;10.00;7.30;;;;;;;2.78;56.31;101092.19;1692667;82;21029;-63
2022/02/15 08:58:52;;;;;;;9.77;6.20;;;;;;;2.90;55.95;101094.33;1722965;82;21073;-65
2022/02/15 09:01:18;;;;;;;12.25;7.55;;;;;;;2.92;55.38;101097.22;1716097;82;21017;-63
2022/02/15 09:03:44;;;;;;;12.07;6.62;;;;;;;3.02;55.45;101092.55;1720664;82;21042;-62
2022/02/15 09:06:10;;;;;;;7.85;6.03;;;;;;;3.06;55.60;101095.30;1722548;82;21038;-64
2022/02/15 09:08:38;;;;;;;12.58;5.95;;;;;;;3.15;55.04;101104.28;1722229;82;20975;-64
2022/02/15 09:11:04;;;;;;;12.77;6.97;;;;;;;3.24;55.09;101088.58;1733959;82;21574;-64
2022/02/15 09:13:31;;;;;;;14.47;5.90;;;;;;;3.34;54.68;101084.72;1675855;83;21579;-61
2022/02/15 09:15:59;;;;;;;10.33;6.37;;;;;;;3.45;54.49;101089.97;1691022;83;22254;-63
2022/02/15 09:18:27;;;;;;;8.27;5.57;;;;;;;3.52;53.88;101083.70;1689028;83;21131;-62
2022/02/15 09:20:53;;;;;;;10.28;6.85;;;;;;;3.62;53.41;101087.77;1690328;83;21007;-63
2022/02/15 09:23:19;;;;;;;6.42;4.45;;;;;;;3.70;53.23;101082.21;1691756;83;21001;-64
2022/02/15 09:25:45;;;;;;;11.08;5.17;;;;;;;3.80;52.66;101081.46;1690647;83;21342;-63
2022/02/15 09:28:11;;;;;;;9.65;4.37;;;;;;;3.89;52.52;101078.06;1691585;83;21090;-63
2022/02/15 09:30:37;;;;;;;8.55;5.75;;;;;;;3.96;52.00;101060.78;1690047;83;21059;-64
2022/02/15 09:33:04;;;;;;;9.30;5.90;;;;;;;4.00;51.75;101061.36;1660936;83;21042;-65
2022/02/15 09:35:30;;;;;;;10.97;4.50;;;;;;;4.03;51.39;101075.59;1651924;85;21848;-63
2022/02/15 09:37:57;;;;;;;8.17;5.00;;;;;;;4.02;51.23;101065.53;1653538;85;21070;-62
2022/02/15 09:40:23;;;;;;;11.63;4.80;;;;;;;3.98;51.19;101056.70;1654985;85;21008;-64
2022/02/15 09:42:51;;;;;;;5.12;3.90;;;;;;;4.00;51.36;101062.19;1662549;85;22102;-62
2022/02/15 09:45:17;;;;;;;7.17;4.63;;;;;;;4.10;51.06;101062.25;1666353;85;20999;-63
2022/02/15 09:47:46;;;;;;;9.60;3.97;;;;;;;4.21;50.49;101060.05;1665829;85;21035;-63
2022/02/15 09:50:12;;;;;;;6.77;3.60;;;;;;;4.18;49.68;101062.47;1635387;86;21012;-63
2022/02/15 09:52:45;;;;;;;13.13;6.03;;;;;;;4.22;49.85;101048.05;1680137;85;21110;-63
2022/02/15 09:55:08;;;;;;;13.03;4.70;;;;;;;4.24;49.55;101044.79;1679794;83;21058;-64
2022/02/15 09:57:36;;;;;;;6.07;4.90;;;;;;;4.27;49.19;101048.47;1667543;84;21063;-64
2022/02/15 10:00:05;;;;;;;11.75;5.90;;;;;;;4.29;49.37;101045.70;1678113;85;21054;-62
2022/02/15 10:02:36;;;;;;;10.70;4.10;;;;;;;4.34;48.49;101046.66;1678062;85;22013;-64
2022/02/15 10:05:04;;;;;;;12.00;5.00;;;;;;;4.22;47.49;101036.17;1673954;85;21034;-62
2022/02/15 10:07:30;;;;;;;11.57;4.73;;;;;;;4.20;47.67;101028.01;1679291;85;21586;-65
2022/02/15 10:10:00;;;;;;;6.97;3.83;;;;;;;4.21;47.68;101027.88;1668709;85;21095;-62
2022/02/15 10:12:28;;;;;;;8.27;4.77;;;;;;;4.21;47.38;101020.45;1664279;84;21150;-63
2022/02/15 10:14:55;;;;;;;9.33;4.80;;;;;;;4.30;47.48;101023.64;1667212;84;22388;-63
2022/02/15 10:17:24;;;;;;;9.37;4.63;;;;;;;4.40;47.47;101021.05;1682285;84;21070;-63
2022/02/15 10:19:51;;;;;;;;;;;;;;;4.47;47.33;101016.42;1688145;84;21054;-64
2022/02/15 10:22:20;;;;;;;3.72;2.85;;;;;;;4.57;46.45;101012.99;1686194;82;20128;-65
2022/02/15 10:24:59;;;;;;;8.93;3.30;;;;;;;4.49;45.92;101032.14;1689454;84;21086;-63
2022/02/15 10:27:30;;;;;;;4.93;3.43;;;;;;;4.44;46.02;101017.17;1686993;84;21042;-64
2022/02/15 10:29:58;;;;;;;4.40;2.60;;;;;;;4.40;45.58;100998.11;1678342;84;21483;-62
2022/02/15 10:32:25;;;;;;;7.53;3.37;;;;;;;4.40;45.98;101015.77;1678741;84;21102;-63
2022/02/15 10:34:58;;;;;;;6.77;3.93;;;;;;;4.44;46.02;101014.03;1659087;85;21086;-64
2022/02/15 10:37:28;;;;;;;6.30;3.50;;;;;;;4.52;46.21;101023.97;1656433;85;21439;-64
2022/02/15 10:39:57;;;;;;;5.83;3.07;;;;;;;4.49;45.92;101014.98;1660466;85;21086;-64
2022/02/15 10:42:28;;;;;;;4.43;2.80;;;;;;;4.51;46.09;101005.61;1665602;85;20987;-63
2022/02/15 10:45:03;;;;;;;3.67;2.70;;;;;;;4.54;45.63;101014.56;1667509;85;21494;-64
2022/02/15 10:47:33;;;;;;;15.87;4.93;;;;;;;4.52;45.67;101005.48;1675853;84;21586;-69
2022/02/15 10:50:09;;;;;;;9.87;4.63;;;;;;;4.49;45.63;101003.09;1683979;84;21012;-69
2022/02/15 10:52:36;;;;;;;12.23;4.13;;;;;;;4.38;45.83;101015.89;1655955;85;21106;-70
2022/02/15 10:55:04;;;;;;;6.30;3.13;;;;;;;4.36;46.35;100996.71;1681699;84;21046;-68
2022/02/15 10:57:33;;;;;;;8.23;4.23;;;;;;;4.36;46.09;100993.25;1679668;85;21043;-67
2022/02/15 11:00:05;;;;;;;6.43;2.93;;;;;;;4.44;46.46;101004.80;1682564;84;21507;-68
2022/02/15 11:02:31;;;;;;;4.73;3.20;;;;;;;4.33;46.08;100978.48;1683358;84;21103;-72
2022/02/15 11:05:02;;;;;;;20.82;4.00;;;;;;;4.31;46.25;100990.16;1677073;84;21029;-72
2022/02/15 11:07:32;;;;;;;7.47;3.80;;;;;;;4.36;46.34;100980.88;1682467;84;21021;-70
2022/02/15 11:10:24;;;;;;;7.10;3.80;;;;;;;4.32;45.94;100989.20;1683192;85;21064;-71
2022/02/15 11:12:55;;;;;;;7.63;3.90;;;;;;;4.25;46.33;100965.13;1650679;84;21049;-71
2022/02/15 11:15:31;;;;;;;6.37;3.77;;;;;;;4.32;46.49;100972.87;1648281;85;21589;-70
2022/02/15 11:18:02;;;;;;;18.12;4.42;;;;;;;4.33;46.32;100978.48;1647759;85;21026;-71
2022/02/15 11:20:50;;;;;;;5.20;3.30;;;;;;;4.31;46.20;100952.72;1647022;86;21154;-69
2022/02/15 11:23:00;;;;;;;7.53;3.87;;;;;;;4.26;46.48;100970.77;1627533;85;20982;-69
2022/02/15 11:25:37;;;;;;;11.33;6.07;;;;;;;4.26;46.90;100973.41;1666981;85;22088;-69
2022/02/15 11:28:11;;;;;;;11.17;4.60;;;;;;;4.23;47.18;100961.78;1667067;84;21102;-71
2022/02/15 11:30:53;;;;;;;7.97;4.67;;;;;;;4.26;47.48;100965.00;1662122;84;21089;-69
2022/02/15 11:33:30;;;;;;;9.03;3.40;;;;;;;4.33;47.49;100962.66;1648807;85;21038;-71
2022/02/15 11:36:07;;;;;;;14.87;5.70;;;;;;;4.38;47.68;100960.95;1647160;85;21079;-69
2022/02/15 11:38:36;;;;;;;10.53;4.72;;;;;;;4.41;47.80;100964.16;1666701;85;21544;-70